createdAt,value
2018-07-04T00:00:25.174Z,10.43
2018-07-04T00:03:04.622Z,9.53
2018-07-04T00:05:44.205Z,10.40
2018-07-04T00:08:23.775Z,10.60
2018-07-04T00:11:03.151Z,10.37
2018-07-04T00:13:42.610Z,10.70
2018-07-04T00:16:22.350Z,11.07
2018-07-04T00:19:01.838Z,10.43
2018-07-04T00:21:41.326Z,10.30
2018-07-04T00:24:20.775Z,9.90
2018-07-04T00:27:00.179Z,10.53
2018-07-04T00:29:39.674Z,10.63
2018-07-04T00:32:19.102Z,10.40
2018-07-04T00:34:58.498Z,10.30
2018-07-04T00:37:37.958Z,10.33
2018-07-04T00:40:17.416Z,10.97
2018-07-04T00:42:56.894Z,10.53
2018-07-04T00:45:36.270Z,10.60
2018-07-04T00:48:15.662Z,9.70
2018-07-04T00:50:55.206Z,11.00
2018-07-04T00:53:34.610Z,10.00
2018-07-04T00:56:13.986Z,10.80
2018-07-04T00:58:53.429Z,10.97
2018-07-04T01:01:32.973Z,10.80
2018-07-04T01:04:12.560Z,10.10
2018-07-04T01:06:51.910Z,11.10
2018-07-04T01:09:31.262Z,11.67
2018-07-04T01:12:10.738Z,11.13
2018-07-04T01:14:50.251Z,12.00
2018-07-04T01:17:29.801Z,11.50
2018-07-04T01:20:09.334Z,10.93
2018-07-04T01:22:49.040Z,11.80
2018-07-04T01:25:28.397Z,11.40
2018-07-04T01:28:07.874Z,11.50
2018-07-04T01:30:47.229Z,11.70
2018-07-04T01:33:26.679Z,11.10
2018-07-04T01:36:05.994Z,11.07
2018-07-04T01:38:45.486Z,12.20
2018-07-04T01:41:24.786Z,11.20
2018-07-04T01:44:04.354Z,12.27
2018-07-04T01:46:43.792Z,12.70
2018-07-04T01:49:23.339Z,11.93
2018-07-04T01:52:02.842Z,12.47
2018-07-04T01:54:42.370Z,11.40
2018-07-04T01:57:21.854Z,11.30
2018-07-04T02:00:01.398Z,12.03
2018-07-04T02:02:40.771Z,11.90
2018-07-04T02:05:20.170Z,11.70
2018-07-04T02:07:59.531Z,11.50
2018-07-04T02:10:38.859Z,11.53
2018-07-04T02:13:18.263Z,11.83
2018-07-04T02:15:57.638Z,11.73
2018-07-04T02:18:37.070Z,11.60
2018-07-04T02:21:16.649Z,11.40
2018-07-04T02:23:56.015Z,12.37
2018-07-04T02:26:35.341Z,11.20
2018-07-04T02:29:14.906Z,11.60
2018-07-04T02:31:54.391Z,11.23
2018-07-04T02:34:33.754Z,11.20
2018-07-04T02:37:13.174Z,11.40
2018-07-04T02:39:52.575Z,11.47
2018-07-04T02:42:32.131Z,10.70
2018-07-04T02:45:11.506Z,11.10
2018-07-04T02:47:51.021Z,11.67
2018-07-04T02:50:30.287Z,10.70
2018-07-04T02:53:09.798Z,10.83
2018-07-04T02:55:49.211Z,10.37
2018-07-04T02:58:28.603Z,11.13
2018-07-04T03:01:08.007Z,11.10
2018-07-04T03:03:47.382Z,11.03
2018-07-04T03:06:26.894Z,10.60
2018-07-04T03:09:06.322Z,10.23
2018-07-04T03:11:45.703Z,9.63
2018-07-04T03:14:25.006Z,10.53
2018-07-04T03:17:04.610Z,10.73
2018-07-04T03:19:44.041Z,10.30
2018-07-04T03:22:23.403Z,11.37
2018-07-04T03:25:02.750Z,10.20
2018-07-04T03:27:42.335Z,9.90
2018-07-04T03:30:21.839Z,9.00
2018-07-04T03:33:01.245Z,10.40
2018-07-04T03:35:40.671Z,10.60
2018-07-04T03:38:20.122Z,10.20
2018-07-04T03:40:59.470Z,9.60
2018-07-04T03:43:39.006Z,9.90
2018-07-04T03:46:18.507Z,9.60
2018-07-04T03:48:58.023Z,9.60
2018-07-04T03:51:37.550Z,9.57
2018-07-04T03:54:17.046Z,9.00
2018-07-04T03:56:56.425Z,9.10
2018-07-04T03:59:35.814Z,9.33
2018-07-04T04:02:15.440Z,9.33
2018-07-04T04:04:54.747Z,9.30
2018-07-04T04:07:34.111Z,9.33
2018-07-04T04:10:13.478Z,8.33
2018-07-04T04:12:53.081Z,7.70
2018-07-04T04:15:32.562Z,7.30
2018-07-04T04:18:12.370Z,8.53
2018-07-04T04:20:51.879Z,9.03
2018-07-04T04:23:31.278Z,8.70
2018-07-04T04:26:10.695Z,8.90
2018-07-04T04:28:50.086Z,9.40
2018-07-04T04:31:29.699Z,9.20
2018-07-04T04:34:09.178Z,8.60
2018-07-04T04:36:48.624Z,8.10
2018-07-04T04:39:27.994Z,8.00
2018-07-04T04:42:07.471Z,7.53
2018-07-04T04:44:47.042Z,8.70
2018-07-04T04:47:26.382Z,8.90
2018-07-04T04:50:05.826Z,8.97
2018-07-04T04:52:45.266Z,8.00
2018-07-04T04:55:24.967Z,8.33
2018-07-04T04:58:04.463Z,9.87
2018-07-04T05:00:43.926Z,8.50
2018-07-04T05:03:23.285Z,9.17
2018-07-04T05:06:02.889Z,8.43
2018-07-04T05:08:42.386Z,9.30
2018-07-04T05:11:21.790Z,8.77
2018-07-04T05:14:01.199Z,8.63
2018-07-04T05:16:40.690Z,8.53
2018-07-04T05:19:20.110Z,8.67
2018-07-04T05:21:59.637Z,8.17
2018-07-04T05:24:38.982Z,8.30
2018-07-04T05:27:18.406Z,7.97
2018-07-04T05:29:57.917Z,8.27
2018-07-04T05:32:37.343Z,7.90
2018-07-04T05:35:16.712Z,8.57
2018-07-04T05:37:56.099Z,8.87
2018-07-04T05:40:35.434Z,8.67
2018-07-04T05:43:14.890Z,8.23
2018-07-04T05:45:54.395Z,7.83
2018-07-04T05:48:33.820Z,8.57
2018-07-04T05:51:13.311Z,8.93
2018-07-04T05:53:52.758Z,8.77
2018-07-04T05:56:32.097Z,8.97
2018-07-04T05:59:11.546Z,9.37
2018-07-04T06:01:51.133Z,9.00
2018-07-04T06:04:30.723Z,8.70
2018-07-04T06:07:10.336Z,9.87
2018-07-04T06:09:49.849Z,8.87
2018-07-04T06:12:29.400Z,8.43
2018-07-04T06:15:08.940Z,9.60
2018-07-04T06:17:48.341Z,9.60
2018-07-04T06:20:27.953Z,9.17
2018-07-04T06:23:07.463Z,8.77
2018-07-04T06:25:46.893Z,9.40
2018-07-04T06:28:26.426Z,9.30
2018-07-04T06:31:05.875Z,9.00
2018-07-04T06:33:45.346Z,9.73
2018-07-04T06:36:24.799Z,9.90
2018-07-04T06:38:51.933Z,9.70
2018-07-04T06:41:19.019Z,8.80
2018-07-04T06:43:46.109Z,9.40
2018-07-04T06:46:13.199Z,9.77
2018-07-04T06:48:40.286Z,9.60
2018-07-04T06:51:08.314Z,10.60
2018-07-04T06:53:35.576Z,9.67
2018-07-04T06:56:02.814Z,9.10
2018-07-04T06:58:29.924Z,9.30
2018-07-04T07:00:56.997Z,9.17
2018-07-04T07:03:36.426Z,9.30
2018-07-04T07:06:15.996Z,9.70
2018-07-04T07:08:55.374Z,9.50
2018-07-04T07:11:34.751Z,8.93
2018-07-04T07:14:14.153Z,8.83
2018-07-04T07:16:53.638Z,9.20
2018-07-04T07:19:33.138Z,8.93
2018-07-04T07:22:12.473Z,9.30
2018-07-04T07:24:51.847Z,9.73
2018-07-04T07:27:31.295Z,9.10
2018-07-04T07:30:10.815Z,9.47
2018-07-04T07:32:50.331Z,9.57
2018-07-04T07:35:29.818Z,9.30
2018-07-04T07:38:09.298Z,9.30
2018-07-04T07:40:48.650Z,9.20
2018-07-04T07:43:28.138Z,9.70
2018-07-04T07:46:07.767Z,8.90
2018-07-04T07:48:47.238Z,10.00
2018-07-04T07:51:26.682Z,9.20
2018-07-04T07:54:06.154Z,10.53
2018-07-04T07:56:45.486Z,10.43
2018-07-04T07:59:24.831Z,10.00
2018-07-04T08:02:04.299Z,9.63
2018-07-04T08:04:43.764Z,9.37
2018-07-04T08:07:23.179Z,9.10
2018-07-04T08:10:02.546Z,10.20
2018-07-04T08:12:41.929Z,10.23
2018-07-04T08:15:21.240Z,10.20
2018-07-04T08:18:01.038Z,10.23
2018-07-04T08:20:40.490Z,9.40
2018-07-04T08:23:19.914Z,9.90
2018-07-04T08:25:59.322Z,8.80
2018-07-04T08:28:38.699Z,9.50
2018-07-04T08:31:18.139Z,9.10
2018-07-04T08:33:57.515Z,8.70
2018-07-04T08:36:36.898Z,9.40
2018-07-04T08:39:16.338Z,9.00
2018-07-04T08:41:55.754Z,8.50
2018-07-04T08:44:35.198Z,8.70
2018-07-04T08:47:14.643Z,8.40
2018-07-04T08:49:54.114Z,8.47
2018-07-04T08:52:33.354Z,9.17
2018-07-04T08:55:12.775Z,9.10
2018-07-04T08:57:52.041Z,10.20
2018-07-04T09:00:31.418Z,8.90
2018-07-04T09:03:10.802Z,9.83
2018-07-04T09:05:50.355Z,8.53
2018-07-04T09:08:29.811Z,8.93
2018-07-04T09:11:09.115Z,8.00
2018-07-04T09:13:48.530Z,9.10
2018-07-04T09:16:28.050Z,9.93
2018-07-04T09:19:07.542Z,9.13
2018-07-04T09:21:46.950Z,10.03
2018-07-04T09:24:26.423Z,9.43
2018-07-04T09:27:05.862Z,10.27
2018-07-04T09:29:45.349Z,10.30
2018-07-04T09:32:24.802Z,12.23
2018-07-04T09:35:04.210Z,10.60
2018-07-04T09:37:43.689Z,12.43
2018-07-04T09:40:23.117Z,11.83
2018-07-04T09:43:02.604Z,11.23
2018-07-04T09:45:42.111Z,12.57
2018-07-04T09:48:21.406Z,12.40
2018-07-04T09:51:00.816Z,12.80
2018-07-04T09:53:40.295Z,11.80
2018-07-04T09:56:19.658Z,12.13
2018-07-04T09:58:59.081Z,12.70
2018-07-04T10:01:38.503Z,12.43
2018-07-04T10:04:18.085Z,11.97
2018-07-04T10:06:57.526Z,13.30
2018-07-04T10:09:36.946Z,11.70
2018-07-04T10:12:16.266Z,12.00
2018-07-04T10:14:55.678Z,12.00
2018-07-04T10:17:35.098Z,12.60
2018-07-04T10:20:14.490Z,12.77
2018-07-04T10:22:53.931Z,12.80
2018-07-04T10:25:33.426Z,13.93
2018-07-04T10:28:12.941Z,14.00
2018-07-04T10:30:52.497Z,13.63
2018-07-04T10:33:31.847Z,13.23
2018-07-04T10:36:11.250Z,14.00
2018-07-04T10:38:50.846Z,14.10
2018-07-04T10:41:30.246Z,14.80
2018-07-04T10:44:09.674Z,14.77
2018-07-04T10:46:49.080Z,14.47
2018-07-04T10:49:28.462Z,14.97
2018-07-04T10:52:07.958Z,14.63
2018-07-04T10:54:47.383Z,15.93
2018-07-04T10:57:26.894Z,15.10
2018-07-04T11:00:06.418Z,14.50
2018-07-04T11:02:45.834Z,14.20
2018-07-04T11:05:25.302Z,13.63
2018-07-04T11:08:04.673Z,13.10
2018-07-04T11:10:44.231Z,15.17
2018-07-04T11:13:23.522Z,14.07
2018-07-04T11:16:02.834Z,14.30
2018-07-04T11:18:42.382Z,12.33
2018-07-04T11:21:21.802Z,13.60
2018-07-04T11:24:01.218Z,14.20
2018-07-04T11:26:40.507Z,14.03
2018-07-04T11:29:19.853Z,13.67
2018-07-04T11:31:59.370Z,12.33
2018-07-04T11:34:38.818Z,11.67
2018-07-04T11:37:18.278Z,11.83
2018-07-04T11:39:57.730Z,11.03
2018-07-04T11:42:37.270Z,11.23
2018-07-04T11:45:16.615Z,11.60
2018-07-04T11:47:43.719Z,11.60
2018-07-04T11:50:10.838Z,11.30
2018-07-04T11:52:37.930Z,10.30
2018-07-04T11:55:05.048Z,10.00
2018-07-04T11:57:32.142Z,9.57
2018-07-04T11:59:59.253Z,10.90
2018-07-04T12:02:26.370Z,9.07
2018-07-04T12:05:05.882Z,10.00
2018-07-04T12:07:32.986Z,10.90
2018-07-04T12:10:00.091Z,9.83
2018-07-04T12:12:27.201Z,9.77
2018-07-04T12:14:54.302Z,10.20
2018-07-04T12:17:21.422Z,10.03
2018-07-04T12:19:48.522Z,10.33
2018-07-04T12:22:15.617Z,9.77
2018-07-04T12:24:42.714Z,10.50
2018-07-04T12:27:09.810Z,10.57
2018-07-04T12:29:36.895Z,9.37
2018-07-04T12:32:04.037Z,10.57
2018-07-04T12:34:31.092Z,10.30
2018-07-04T12:36:58.190Z,11.63
2018-07-04T12:39:25.283Z,12.30
2018-07-04T12:41:52.376Z,11.80
2018-07-04T12:44:19.470Z,12.27
2018-07-04T12:46:46.595Z,12.20
2018-07-04T12:49:13.694Z,14.60
2018-07-04T12:51:40.786Z,13.37
2018-07-04T12:54:13.201Z,13.53
2018-07-04T12:56:52.536Z,13.90
2018-07-04T12:59:32.027Z,13.37
2018-07-04T13:02:11.443Z,12.57
2018-07-04T13:04:50.959Z,13.30
2018-07-04T13:07:30.478Z,14.03
2018-07-04T13:10:09.843Z,13.27
2018-07-04T13:12:49.276Z,12.37
2018-07-04T13:15:28.598Z,12.17
2018-07-04T13:18:08.014Z,12.77
2018-07-04T13:20:47.313Z,12.90
2018-07-04T13:23:26.697Z,12.10
2018-07-04T13:26:06.172Z,12.47
2018-07-04T13:28:45.697Z,12.80
2018-07-04T13:31:25.086Z,13.30
2018-07-04T13:34:04.518Z,12.33
2018-07-04T13:36:43.999Z,12.33
2018-07-04T13:39:23.376Z,12.00
2018-07-04T13:42:02.811Z,11.93
2018-07-04T13:44:42.437Z,12.97
2018-07-04T13:47:21.979Z,11.80
2018-07-04T13:50:01.459Z,11.33
2018-07-04T13:52:41.086Z,12.40
2018-07-04T13:55:21.008Z,12.50
2018-07-04T13:58:00.574Z,12.90
2018-07-04T14:00:39.800Z,13.40
2018-07-04T14:03:19.327Z,12.80
2018-07-04T14:05:58.727Z,12.60
2018-07-04T14:08:38.254Z,12.70
2018-07-04T14:11:17.623Z,12.53
2018-07-04T14:13:57.046Z,13.03
2018-07-04T14:16:37.330Z,12.63
2018-07-04T14:19:17.003Z,12.50
2018-07-04T14:21:56.494Z,13.40
2018-07-04T14:24:36.334Z,12.20
2018-07-04T14:27:15.809Z,12.30
2018-07-04T14:29:55.251Z,13.60
2018-07-04T14:32:34.690Z,13.13
2018-07-04T14:35:14.083Z,12.90
2018-07-04T14:37:53.586Z,13.47
2018-07-04T14:40:33.264Z,12.40
2018-07-04T14:43:12.822Z,13.10
2018-07-04T14:45:52.298Z,12.13
2018-07-04T14:48:31.715Z,12.20
2018-07-04T14:51:11.254Z,12.00
2018-07-04T14:53:50.848Z,11.43
2018-07-04T14:56:30.381Z,12.63
2018-07-04T14:59:09.890Z,11.10
2018-07-04T15:01:49.437Z,11.73
2018-07-04T15:04:28.984Z,12.27
2018-07-04T15:07:08.328Z,11.77
2018-07-04T15:09:47.768Z,11.83
2018-07-04T15:12:26.985Z,12.20
2018-07-04T15:15:06.514Z,11.87
2018-07-04T15:17:45.949Z,12.30
2018-07-04T15:20:25.310Z,13.60
2018-07-04T15:23:04.822Z,12.20
2018-07-04T15:25:44.330Z,12.73
2018-07-04T15:28:23.710Z,12.63
2018-07-04T15:31:03.276Z,12.93
2018-07-04T15:33:42.623Z,12.17
2018-07-04T15:36:22.162Z,11.93
2018-07-04T15:39:01.716Z,11.30
2018-07-04T15:41:41.076Z,11.70
2018-07-04T15:44:20.434Z,11.60
2018-07-04T15:47:00.060Z,12.43
2018-07-04T15:49:39.625Z,11.33
2018-07-04T15:52:19.070Z,12.30
2018-07-04T15:54:58.611Z,12.00
2018-07-04T15:57:37.979Z,12.70
2018-07-04T16:00:17.246Z,12.30
2018-07-04T16:02:56.828Z,12.90
2018-07-04T16:05:36.298Z,12.03
2018-07-04T16:08:15.919Z,12.13
2018-07-04T16:10:55.413Z,12.97
2018-07-04T16:13:34.952Z,12.20
2018-07-04T16:16:14.374Z,12.77
2018-07-04T16:18:53.861Z,12.00
2018-07-04T16:21:33.307Z,13.07
2018-07-04T16:24:12.714Z,12.43
2018-07-04T16:26:52.649Z,13.43
2018-07-04T16:29:32.094Z,14.00
2018-07-04T16:32:11.466Z,12.87
2018-07-04T16:34:50.859Z,11.90
2018-07-04T16:37:30.390Z,13.77
2018-07-04T16:40:09.829Z,12.07
2018-07-04T16:42:49.286Z,12.40
2018-07-04T16:45:28.670Z,13.30
2018-07-04T16:48:08.157Z,11.53
2018-07-04T16:50:47.594Z,11.30
2018-07-04T16:53:27.022Z,11.53
2018-07-04T16:56:06.478Z,11.50
2018-07-04T16:58:45.900Z,12.87
2018-07-04T17:01:25.422Z,13.03
2018-07-04T17:04:04.942Z,12.23
2018-07-04T17:06:44.344Z,12.20
2018-07-04T17:09:23.814Z,11.63
2018-07-04T17:12:03.254Z,12.23
2018-07-04T17:14:42.978Z,12.87
2018-07-04T17:17:22.313Z,12.13
2018-07-04T17:20:01.827Z,13.00
2018-07-04T17:22:41.218Z,12.73
2018-07-04T17:25:20.647Z,12.40
2018-07-04T17:28:00.230Z,12.37
2018-07-04T17:30:39.662Z,12.80
2018-07-04T17:33:19.027Z,12.27
2018-07-04T17:35:58.323Z,12.60
2018-07-04T17:38:37.708Z,12.63
2018-07-04T17:41:17.039Z,12.57
2018-07-04T17:43:56.587Z,12.60
2018-07-04T17:46:35.927Z,13.40
2018-07-04T17:49:15.398Z,13.10
2018-07-04T17:51:54.767Z,13.67
2018-07-04T17:54:34.234Z,13.83
2018-07-04T17:57:13.583Z,12.90
2018-07-04T17:59:53.114Z,13.37
2018-07-04T18:02:32.526Z,13.77
2018-07-04T18:05:11.903Z,13.00
2018-07-04T18:07:51.429Z,13.90
2018-07-04T18:10:30.915Z,14.00
2018-07-04T18:13:10.406Z,13.27
2018-07-04T18:15:49.950Z,12.93
2018-07-04T18:18:29.368Z,13.70
2018-07-04T18:21:14.113Z,13.60
2018-07-04T18:23:53.419Z,12.73
2018-07-04T18:26:32.862Z,14.43
2018-07-04T18:29:12.342Z,13.10
2018-07-04T18:31:52.031Z,12.87
2018-07-04T18:34:31.726Z,12.90
2018-07-04T18:37:11.281Z,13.67
2018-07-04T18:39:50.685Z,13.37
2018-07-04T18:42:30.360Z,12.80
2018-07-04T18:45:09.923Z,12.70
2018-07-04T18:47:49.354Z,13.60
2018-07-04T18:50:28.923Z,14.13
2018-07-04T18:53:08.463Z,14.60
2018-07-04T18:55:48.143Z,13.37
2018-07-04T18:58:27.697Z,13.23
2018-07-04T19:01:07.314Z,13.40
2018-07-04T19:03:46.976Z,12.40
2018-07-04T19:06:26.510Z,12.93
2018-07-04T19:09:06.610Z,13.33
2018-07-04T19:11:46.146Z,12.87
2018-07-04T19:14:25.531Z,14.17
2018-07-04T19:17:05.082Z,13.20
2018-07-04T19:19:44.621Z,13.47
2018-07-04T19:22:24.090Z,14.17
2018-07-04T19:25:03.442Z,13.37
2018-07-04T19:27:43.321Z,13.80
2018-07-04T19:30:22.766Z,14.87
2018-07-04T19:33:02.111Z,13.37
2018-07-04T19:35:41.498Z,14.70
2018-07-04T19:38:21.057Z,14.37
2018-07-04T19:41:00.531Z,14.23
2018-07-04T19:43:39.971Z,14.70
2018-07-04T19:46:19.398Z,14.80
2018-07-04T19:48:58.836Z,15.70
2018-07-04T19:51:38.301Z,14.80
2018-07-04T19:54:17.738Z,15.27
2018-07-04T19:56:57.178Z,14.47
2018-07-04T19:59:36.557Z,15.20
2018-07-04T20:02:15.950Z,14.33
2018-07-04T20:04:55.398Z,14.07
2018-07-04T20:07:34.942Z,14.87
2018-07-04T20:10:14.366Z,15.13
2018-07-04T20:12:53.726Z,15.57
2018-07-04T20:15:33.219Z,15.00
2018-07-04T20:18:12.638Z,14.20
2018-07-04T20:20:52.066Z,17.50
2018-07-04T20:23:31.547Z,14.83
2018-07-04T20:26:11.006Z,15.67
2018-07-04T20:28:50.451Z,14.70
2018-07-04T20:31:29.986Z,14.30
2018-07-04T20:34:09.406Z,13.30
2018-07-04T20:36:48.766Z,14.63
2018-07-04T20:39:28.114Z,14.07
2018-07-04T20:42:07.695Z,14.60
2018-07-04T20:44:47.110Z,15.47
2018-07-04T20:47:26.523Z,16.00
2018-07-04T20:50:05.975Z,16.00
2018-07-04T20:52:45.545Z,15.20
2018-07-04T20:55:25.070Z,14.53
2018-07-04T20:58:04.546Z,15.10
2018-07-04T21:00:43.954Z,16.47
2018-07-04T21:03:23.318Z,15.00
2018-07-04T21:06:02.731Z,14.70
2018-07-04T21:08:42.150Z,15.30
2018-07-04T21:11:21.546Z,16.47
2018-07-04T21:14:01.443Z,15.80
2018-07-04T21:16:41.506Z,16.17
2018-07-04T21:19:20.870Z,17.57
2018-07-04T21:22:00.293Z,15.77
2018-07-04T21:24:39.678Z,16.90
2018-07-04T21:27:19.078Z,16.50
2018-07-04T21:29:58.586Z,17.10
2018-07-04T21:32:38.138Z,16.90
2018-07-04T21:35:17.523Z,17.20
2018-07-04T21:37:56.899Z,18.30
2018-07-04T21:40:36.294Z,16.93
2018-07-04T21:43:15.685Z,17.13
2018-07-04T21:45:55.334Z,18.57
2018-07-04T21:48:34.870Z,16.50
2018-07-04T21:51:14.241Z,16.40
2018-07-04T21:53:53.607Z,17.73
2018-07-04T21:56:33.101Z,18.93
2018-07-04T21:59:12.560Z,17.83
2018-07-04T22:01:51.934Z,17.60
2018-07-04T22:04:31.358Z,18.20
2018-07-04T22:07:10.870Z,16.60
2018-07-04T22:09:50.235Z,16.53
2018-07-04T22:12:29.705Z,18.17
2018-07-04T22:15:09.048Z,16.97
2018-07-04T22:17:48.591Z,17.30
2018-07-04T22:20:28.007Z,16.70
2018-07-04T22:23:07.330Z,16.40
2018-07-04T22:25:46.693Z,16.13
2018-07-04T22:28:26.230Z,18.00
2018-07-04T22:31:05.638Z,16.20
2018-07-04T22:33:44.994Z,17.30
2018-07-04T22:36:24.354Z,16.70
2018-07-04T22:39:04.698Z,16.30
2018-07-04T22:41:44.146Z,17.33
2018-07-04T22:44:23.515Z,18.27
2018-07-04T22:47:02.957Z,16.50
2018-07-04T22:49:42.355Z,15.80
2018-07-04T22:52:21.799Z,16.97
2018-07-04T22:55:01.310Z,16.37
2018-07-04T22:57:40.922Z,17.93
2018-07-04T23:00:20.298Z,17.83
2018-07-04T23:02:59.806Z,17.70
2018-07-04T23:05:39.239Z,17.00
2018-07-04T23:08:18.814Z,17.43
2018-07-04T23:10:58.318Z,16.70
2018-07-04T23:13:37.731Z,17.13
2018-07-04T23:16:17.151Z,17.13
2018-07-04T23:18:56.554Z,17.23
2018-07-04T23:21:36.038Z,17.37
2018-07-04T23:24:15.474Z,16.70
2018-07-04T23:26:54.871Z,16.83
2018-07-04T23:29:34.414Z,16.63
2018-07-04T23:32:13.834Z,16.70
2018-07-04T23:34:53.415Z,17.13
2018-07-04T23:37:32.822Z,17.43
2018-07-04T23:40:12.354Z,16.60
2018-07-04T23:42:51.730Z,17.90
2018-07-04T23:45:31.166Z,17.67
2018-07-04T23:48:10.663Z,17.27
2018-07-04T23:50:50.074Z,18.60
2018-07-04T23:53:29.704Z,17.07
2018-07-04T23:56:09.326Z,17.10
2018-07-04T23:58:48.830Z,16.40
